createdAt,value
2022-09-21T00:01:49.365Z,97218.00
2022-09-21T00:04:17.275Z,97209.34
2022-09-21T00:06:50.851Z,96990.97
2022-09-21T00:09:22.644Z,97205.03
2022-09-21T00:11:56.342Z,97199.69
2022-09-21T00:14:26.404Z,97206.84
2022-09-21T00:16:54.364Z,97205.13
2022-09-21T00:19:22.109Z,97207.38
2022-09-21T00:21:53.209Z,97208.25
2022-09-21T00:24:21.177Z,97199.69
2022-09-21T00:26:48.985Z,97201.03
2022-09-21T00:29:16.519Z,97210.53
2022-09-21T00:31:44.318Z,97243.69
2022-09-21T00:34:17.417Z,97199.19
2022-09-21T00:36:45.298Z,97209.59
2022-09-21T00:39:14.756Z,97202.31
2022-09-21T00:41:42.634Z,97198.13
2022-09-21T00:44:20.853Z,97206.56
2022-09-21T00:46:51.777Z,97200.13
2022-09-21T00:49:23.456Z,97204.13
2022-09-21T00:51:52.577Z,97199.22
2022-09-21T00:54:24.789Z,97203.31
2022-09-21T00:56:58.033Z,97202.94
2022-09-21T00:59:30.085Z,97206.00
2022-09-21T01:01:58.309Z,97205.19
2022-09-21T01:04:28.270Z,97205.00
2022-09-21T01:06:57.972Z,97203.41
2022-09-21T01:09:26.926Z,97203.47
2022-09-21T01:11:57.426Z,97209.19
2022-09-21T01:14:30.548Z,97205.47
2022-09-21T01:17:02.577Z,97207.25
2022-09-21T01:19:52.250Z,97211.75
2022-09-21T01:22:20.307Z,97205.84
2022-09-21T01:24:53.410Z,96943.13
2022-09-21T01:27:39.113Z,97214.94
2022-09-21T01:30:09.223Z,97212.88
2022-09-21T01:32:40.966Z,97218.00
2022-09-21T01:35:12.508Z,97212.38
2022-09-21T01:37:43.555Z,97214.63
2022-09-21T01:40:12.149Z,97220.50
2022-09-21T01:42:40.220Z,97225.50
2022-09-21T01:45:10.956Z,97218.03
2022-09-21T01:47:38.876Z,97217.47
2022-09-21T01:50:07.937Z,97215.91
2022-09-21T01:52:36.316Z,97216.72
2022-09-21T01:55:05.444Z,97214.66
2022-09-21T01:57:33.600Z,97218.06
2022-09-21T02:00:01.681Z,97218.28
2022-09-21T02:02:32.278Z,97221.75
2022-09-21T02:05:01.950Z,97225.06
2022-09-21T02:07:29.602Z,97216.00
2022-09-21T02:10:01.231Z,97211.84
2022-09-21T02:12:31.628Z,97210.31
2022-09-21T02:14:59.460Z,97210.47
2022-09-21T02:17:31.310Z,97218.88
2022-09-21T02:20:03.318Z,97213.75
2022-09-21T02:22:33.288Z,97203.81
2022-09-21T02:25:05.038Z,97207.34
2022-09-21T02:27:33.654Z,97209.25
2022-09-21T02:30:03.191Z,97203.03
2022-09-21T02:32:33.928Z,97209.09
2022-09-21T02:35:05.044Z,97210.13
2022-09-21T02:37:35.385Z,97209.09
2022-09-21T02:40:05.454Z,97204.75
2022-09-21T02:42:34.187Z,97211.31
2022-09-21T02:45:05.983Z,97202.31
2022-09-21T02:47:35.382Z,97203.91
2022-09-21T02:50:05.981Z,97200.47
2022-09-21T02:52:33.498Z,97205.91
2022-09-21T02:55:05.118Z,97212.94
2022-09-21T02:57:33.338Z,97210.69
2022-09-21T03:00:03.839Z,97198.38
2022-09-21T03:02:37.002Z,97196.50
2022-09-21T03:05:06.998Z,97196.84
2022-09-21T03:07:37.688Z,97190.72
2022-09-21T03:10:08.552Z,97199.66
2022-09-21T03:12:37.101Z,97198.84
2022-09-21T03:15:07.435Z,97198.94
2022-09-21T03:17:35.105Z,97190.41
2022-09-21T03:20:03.026Z,97195.47
2022-09-21T03:22:38.403Z,97196.81
2022-09-21T03:25:07.024Z,97197.53
2022-09-21T03:27:34.637Z,97204.56
2022-09-21T03:30:02.798Z,97195.84
2022-09-21T03:32:36.441Z,97208.84
2022-09-21T03:35:04.937Z,97213.50
2022-09-21T03:37:41.411Z,97206.03
2022-09-21T03:40:09.791Z,97213.72
2022-09-21T03:42:37.922Z,97206.69
2022-09-21T03:45:06.492Z,97211.41
2022-09-21T03:47:34.388Z,97208.75
2022-09-21T03:50:04.608Z,97210.59
2022-09-21T03:52:40.790Z,97215.47
2022-09-21T03:55:09.316Z,97213.28
2022-09-21T03:57:38.410Z,97217.97
2022-09-21T04:00:09.194Z,97215.22
2022-09-21T04:02:39.276Z,97217.25
2022-09-21T04:05:08.197Z,97217.59
2022-09-21T04:07:38.257Z,97220.81
2022-09-21T04:10:06.591Z,97221.84
2022-09-21T04:12:34.610Z,97227.75
2022-09-21T04:15:02.325Z,97234.69
2022-09-21T04:17:31.261Z,97229.81
2022-09-21T04:19:58.881Z,97225.38
2022-09-21T04:22:34.196Z,97234.66
2022-09-21T04:25:04.068Z,97226.09
2022-09-21T04:27:31.880Z,97232.53
2022-09-21T04:29:59.880Z,97236.47
2022-09-21T04:32:27.639Z,97236.56
2022-09-21T04:34:55.851Z,97225.09
2022-09-21T04:37:24.326Z,97233.19
2022-09-21T04:39:51.929Z,97227.03
2022-09-21T04:42:21.297Z,97232.03
2022-09-21T04:44:49.136Z,97231.38
2022-09-21T04:47:16.880Z,96968.75
2022-09-21T04:49:48.335Z,97234.72
2022-09-21T04:52:19.132Z,97239.00
2022-09-21T04:54:47.179Z,97239.38
2022-09-21T04:57:17.849Z,97240.94
2022-09-21T04:59:49.893Z,97245.03
2022-09-21T05:02:31.605Z,97250.13
2022-09-21T05:05:01.812Z,97253.88
2022-09-21T05:07:29.487Z,97247.09
2022-09-21T05:10:07.041Z,97255.69
2022-09-21T05:12:37.633Z,97250.94
2022-09-21T05:15:10.653Z,97249.63
2022-09-21T05:17:38.595Z,97254.63
2022-09-21T05:20:06.933Z,97259.69
2022-09-21T05:22:35.107Z,97259.06
2022-09-21T05:25:04.922Z,97269.28
2022-09-21T05:27:32.516Z,97258.81
2022-09-21T05:30:00.614Z,97259.88
2022-09-21T05:32:37.205Z,97261.38
2022-09-21T05:35:07.134Z,97262.25
2022-09-21T05:37:50.512Z,97270.16
2022-09-21T05:40:18.821Z,97265.09
2022-09-21T05:42:46.746Z,97266.50
2022-09-21T05:45:16.136Z,97269.28
2022-09-21T05:47:53.248Z,97262.81
2022-09-21T05:50:30.855Z,97268.09
2022-09-21T05:53:01.456Z,97267.41
2022-09-21T05:55:32.367Z,97263.06
2022-09-21T05:58:04.168Z,96998.22
2022-09-21T06:00:32.990Z,97265.13
2022-09-21T06:03:17.841Z,97269.88
2022-09-21T06:05:46.831Z,97269.13
2022-09-21T06:08:14.822Z,97270.59
2022-09-21T06:10:42.356Z,97262.13
2022-09-21T06:13:12.205Z,97265.56
2022-09-21T06:15:40.183Z,97271.28
2022-09-21T06:18:09.035Z,97270.78
2022-09-21T06:20:38.557Z,97271.84
2022-09-21T06:23:09.097Z,97272.78
2022-09-21T06:25:39.312Z,97265.78
2022-09-21T06:28:19.883Z,97274.88
2022-09-21T06:30:51.747Z,97278.28
2022-09-21T06:33:21.375Z,97269.34
2022-09-21T06:35:54.972Z,97272.53
2022-09-21T06:38:22.869Z,97267.88
2022-09-21T06:40:50.631Z,97272.72
2022-09-21T06:43:18.742Z,97272.78
2022-09-21T06:45:48.301Z,97269.06
2022-09-21T06:48:16.057Z,97270.22
2022-09-21T06:50:43.924Z,97276.69
2022-09-21T06:53:15.006Z,97277.28
2022-09-21T06:55:45.726Z,97272.84
2022-09-21T06:58:13.584Z,97075.97
2022-09-21T07:00:41.297Z,97274.44
2022-09-21T07:03:11.349Z,97281.59
2022-09-21T07:05:40.279Z,97285.47
2022-09-21T07:10:05.174Z,97276.31
2022-09-21T07:11:00.921Z,97276.06
2022-09-21T07:13:28.932Z,97277.38
2022-09-21T07:15:58.985Z,97273.50
2022-09-21T07:18:27.058Z,97280.06
2022-09-21T07:20:56.991Z,97268.69
2022-09-21T07:23:26.891Z,97278.59
2022-09-21T07:25:54.861Z,97287.72
2022-09-21T07:28:24.892Z,97289.88
2022-09-21T07:30:53.470Z,97291.03
2022-09-21T07:33:21.418Z,97285.56
2022-09-21T07:35:52.443Z,97287.44
2022-09-21T07:38:23.409Z,97288.03
2022-09-21T07:40:52.037Z,97287.84
2022-09-21T07:43:20.644Z,97301.19
2022-09-21T07:45:56.126Z,97298.03
2022-09-21T07:48:26.357Z,97297.34
2022-09-21T07:50:55.228Z,97300.56
2022-09-21T07:53:23.145Z,97300.78
2022-09-21T07:55:51.085Z,97304.72
2022-09-21T07:58:38.928Z,97305.63
2022-09-21T08:01:09.583Z,97309.38
2022-09-21T08:03:39.629Z,97307.41
2022-09-21T08:06:10.936Z,97306.78
2022-09-21T08:08:41.715Z,97304.53
2022-09-21T08:11:11.892Z,97293.13
2022-09-21T08:13:39.510Z,97298.34
2022-09-21T08:16:12.392Z,97300.13
2022-09-21T08:18:42.265Z,97310.41
2022-09-21T08:21:12.908Z,97304.75
2022-09-21T08:23:43.098Z,97314.19
2022-09-21T08:26:12.544Z,97311.69
2022-09-21T08:28:40.832Z,97307.06
2022-09-21T08:31:09.569Z,97308.78
2022-09-21T08:33:38.859Z,97305.66
2022-09-21T08:36:07.941Z,97309.50
2022-09-21T08:38:36.701Z,97307.38
2022-09-21T08:41:04.751Z,97310.50
2022-09-21T08:43:33.438Z,97308.47
2022-09-21T08:46:01.053Z,97311.53
2022-09-21T08:48:34.463Z,97307.72
2022-09-21T08:51:08.265Z,97305.91
2022-09-21T08:53:36.388Z,97292.75
2022-09-21T08:56:06.985Z,97300.31
2022-09-21T08:58:35.000Z,97303.16
2022-09-21T09:01:08.535Z,97292.81
2022-09-21T09:03:55.073Z,97285.19
2022-09-21T09:06:26.866Z,97286.94
2022-09-21T09:09:15.997Z,97291.19
2022-09-21T09:11:49.738Z,97291.59
2022-09-21T09:14:24.958Z,97295.47
2022-09-21T09:16:55.705Z,97292.75
2022-09-21T09:19:32.557Z,97292.63
2022-09-21T09:22:06.909Z,97284.91
2022-09-21T09:24:38.092Z,97285.03
2022-09-21T09:27:07.113Z,97285.63
2022-09-21T09:29:38.626Z,97285.25
2022-09-21T09:32:06.390Z,97060.78
2022-09-21T09:34:35.194Z,97282.19
2022-09-21T09:37:07.154Z,97285.97
2022-09-21T09:39:34.827Z,97274.84
2022-09-21T09:42:09.560Z,97276.06
2022-09-21T09:44:47.170Z,97276.69
2022-09-21T09:47:18.615Z,97274.59
2022-09-21T09:49:49.338Z,97264.72
2022-09-21T09:52:19.168Z,97270.88
2022-09-21T09:54:48.282Z,97263.97
2022-09-21T09:57:16.256Z,97261.13
2022-09-21T09:59:53.364Z,97256.56
2022-09-21T10:02:22.396Z,97250.78
2022-09-21T10:05:03.847Z,97254.53
2022-09-21T10:07:40.360Z,97253.44
2022-09-21T10:10:24.572Z,97247.66
2022-09-21T10:12:52.197Z,97239.59
2022-09-21T10:15:20.477Z,97243.59
2022-09-21T10:17:48.304Z,97238.59
2022-09-21T10:20:20.478Z,97240.44
2022-09-21T10:22:50.474Z,97237.50
2022-09-21T10:25:21.267Z,97240.72
2022-09-21T10:27:50.004Z,97246.59
2022-09-21T10:30:34.169Z,97227.63
2022-09-21T10:33:02.337Z,97234.34
2022-09-21T10:35:30.569Z,97231.69
2022-09-21T10:38:13.319Z,97236.97
2022-09-21T10:40:42.695Z,97256.72
2022-09-21T10:43:20.459Z,97218.81
2022-09-21T10:45:54.665Z,97224.66
2022-09-21T10:48:22.506Z,97217.81
2022-09-21T10:50:51.108Z,97218.31
2022-09-21T10:53:21.552Z,97219.88
2022-09-21T10:56:04.937Z,97218.78
2022-09-21T10:58:40.359Z,97215.31
2022-09-21T11:01:13.046Z,97222.06
2022-09-21T11:03:43.529Z,97213.22
2022-09-21T11:06:16.093Z,97213.78
2022-09-21T11:08:47.058Z,97216.13
2022-09-21T11:11:33.547Z,97185.75
2022-09-21T11:14:10.073Z,97217.78
2022-09-21T11:16:38.530Z,97220.44
2022-09-21T11:19:10.169Z,97223.63
2022-09-21T11:21:42.963Z,97219.34
2022-09-21T11:24:15.645Z,97217.66
2022-09-21T11:26:49.091Z,97212.34
2022-09-21T11:29:23.177Z,97216.88
2022-09-21T11:31:58.369Z,97209.75
2022-09-21T11:34:33.086Z,97198.97
2022-09-21T11:37:10.289Z,97201.50
2022-09-21T11:39:42.099Z,97196.91
2022-09-21T11:42:15.073Z,97189.47
2022-09-21T11:44:49.279Z,97180.22
2022-09-21T11:47:20.080Z,97169.25
2022-09-21T11:50:26.388Z,97177.00
2022-09-21T11:52:54.482Z,97171.19
2022-09-21T11:55:32.794Z,97166.22
2022-09-21T11:58:18.669Z,97173.97
2022-09-21T12:00:52.779Z,97165.41
2022-09-21T12:03:35.360Z,97174.69
2022-09-21T12:06:05.342Z,97168.41
2022-09-21T12:08:43.439Z,97158.28
2022-09-21T12:11:14.063Z,97161.66
2022-09-21T12:13:43.594Z,97156.66
2022-09-21T12:16:14.873Z,97160.97
2022-09-21T12:18:46.289Z,97155.47
2022-09-21T12:21:15.280Z,97164.81
2022-09-21T12:23:43.288Z,97164.00
2022-09-21T12:26:11.502Z,97168.09
2022-09-21T12:28:41.058Z,97176.66
2022-09-21T12:31:11.083Z,97166.09
2022-09-21T12:33:43.130Z,97169.44
2022-09-21T12:36:14.753Z,97153.16
2022-09-21T12:38:44.311Z,97160.66
2022-09-21T12:41:16.085Z,97150.75
2022-09-21T12:43:45.028Z,97143.50
2022-09-21T12:46:14.507Z,97144.53
2022-09-21T12:48:45.592Z,97147.88
2022-09-21T12:51:15.622Z,97142.44
2022-09-21T12:53:50.636Z,97138.00
2022-09-21T12:56:22.646Z,97151.34
2022-09-21T12:58:57.508Z,97133.53
2022-09-21T13:01:27.988Z,97137.53
2022-09-21T13:04:04.482Z,97130.94
2022-09-21T13:06:42.863Z,97133.41
2022-09-21T13:09:15.046Z,97143.66
2022-09-21T13:11:51.160Z,97144.75
2022-09-21T13:14:18.872Z,97145.19
2022-09-21T13:16:46.510Z,97138.59
2022-09-21T13:19:22.846Z,97132.69
2022-09-21T13:22:14.600Z,97132.22
2022-09-21T13:24:43.513Z,97122.00
2022-09-21T13:27:16.176Z,97126.03
2022-09-21T13:29:45.962Z,97132.22
2022-09-21T13:32:23.813Z,97136.09
2022-09-21T13:34:54.345Z,97137.38
2022-09-21T13:37:31.571Z,97135.72
2022-09-21T13:40:18.192Z,97133.22
2022-09-21T13:42:47.718Z,97117.16
2022-09-21T13:45:34.649Z,97117.78
2022-09-21T13:48:02.377Z,97107.47
2022-09-21T13:50:33.596Z,97102.69
2022-09-21T13:53:01.605Z,97107.41
2022-09-21T13:55:30.695Z,97094.34
2022-09-21T13:57:59.822Z,97098.66
2022-09-21T14:00:37.759Z,97090.31
2022-09-21T14:03:06.311Z,97086.59
2022-09-21T14:05:37.543Z,97091.13
2022-09-21T14:08:07.872Z,97083.50
2022-09-21T14:10:36.426Z,97085.59
2022-09-21T14:13:07.789Z,97082.44
2022-09-21T14:15:39.701Z,97094.56
2022-09-21T14:18:21.815Z,97084.81
2022-09-21T14:21:08.746Z,97076.44
2022-09-21T14:23:38.730Z,97078.00
2022-09-21T14:26:20.885Z,97079.91
2022-09-21T14:28:51.354Z,97066.97
2022-09-21T14:31:20.319Z,97074.69
2022-09-21T14:33:48.634Z,97067.81
2022-09-21T14:36:17.136Z,97071.91
2022-09-21T14:38:54.652Z,97070.06
2022-09-21T14:41:41.213Z,97073.06
2022-09-21T14:44:10.903Z,97063.78
2022-09-21T14:46:59.760Z,97071.72
2022-09-21T14:49:34.898Z,97062.91
2022-09-21T14:52:16.670Z,97061.09
2022-09-21T14:54:52.711Z,97061.66
2022-09-21T14:57:24.802Z,97050.38
2022-09-21T14:59:59.714Z,97052.09
2022-09-21T15:02:28.123Z,97046.88
2022-09-21T15:04:57.934Z,97043.25
2022-09-21T15:07:46.295Z,97051.59
2022-09-21T15:10:40.499Z,97059.47
2022-09-21T15:13:13.220Z,97050.09
2022-09-21T15:15:43.237Z,97047.56
2022-09-21T15:18:20.133Z,97046.25
2022-09-21T15:21:01.296Z,97041.66
2022-09-21T15:23:34.701Z,97038.47
2022-09-21T15:26:04.649Z,97045.03
2022-09-21T15:28:58.060Z,97041.78
2022-09-21T15:31:24.664Z,97044.94
2022-09-21T15:33:52.852Z,97039.59
2022-09-21T15:36:24.245Z,97040.75
2022-09-21T15:38:52.596Z,97030.41
2022-09-21T15:41:39.458Z,97042.06
2022-09-21T15:44:16.973Z,97035.06
2022-09-21T15:46:45.441Z,97035.53
2022-09-21T15:49:15.282Z,97033.03
2022-09-21T15:51:46.153Z,97040.00
2022-09-21T15:54:32.272Z,97037.31
2022-09-21T15:57:05.923Z,97040.19
2022-09-21T15:59:35.568Z,97046.28
2022-09-21T16:02:15.796Z,97046.97
2022-09-21T16:04:49.367Z,97038.25
2022-09-21T16:07:26.107Z,97045.22
2022-09-21T16:09:53.843Z,97042.19
2022-09-21T16:12:41.763Z,97045.53
2022-09-21T16:15:14.716Z,97047.06
2022-09-21T16:17:54.021Z,97044.97
2022-09-21T16:20:24.634Z,97043.34
2022-09-21T16:22:55.635Z,97044.81
2022-09-21T16:25:25.298Z,97056.59
2022-09-21T16:27:55.489Z,97050.03
2022-09-21T16:30:42.537Z,97059.06
2022-09-21T16:33:33.586Z,97063.34
2022-09-21T16:36:04.777Z,97056.94
2022-09-21T16:38:35.684Z,97063.00
2022-09-21T16:41:03.276Z,97055.16
2022-09-21T16:43:35.649Z,97053.66
2022-09-21T16:46:06.141Z,97063.53
2022-09-21T16:48:33.817Z,97062.69
2022-09-21T16:51:01.672Z,97066.56
2022-09-21T16:53:29.361Z,97074.59
2022-09-21T16:55:57.414Z,97067.16
2022-09-21T16:58:25.968Z,97069.69
2022-09-21T17:01:00.026Z,97074.97
2022-09-21T17:03:31.631Z,97078.88
2022-09-21T17:05:59.650Z,97083.34
2022-09-21T17:08:27.888Z,97078.16
2022-09-21T17:10:56.017Z,97081.88
2022-09-21T17:13:29.049Z,97081.09
2022-09-21T17:15:58.514Z,97085.97
2022-09-21T17:18:26.304Z,97088.66
2022-09-21T17:20:57.100Z,97092.94
2022-09-21T17:23:29.121Z,97084.88
2022-09-21T17:25:57.403Z,97090.66
2022-09-21T17:28:26.629Z,97088.09
2022-09-21T17:30:56.147Z,97098.28
2022-09-21T17:33:27.254Z,97093.06
2022-09-21T17:35:55.379Z,97086.75
2022-09-21T17:38:23.367Z,97084.28
2022-09-21T17:40:54.502Z,97089.44
2022-09-21T17:43:33.149Z,97099.03
2022-09-21T17:46:03.677Z,97090.09
2022-09-21T17:48:34.362Z,97093.81
2022-09-21T17:51:02.303Z,97102.06
2022-09-21T17:53:37.064Z,97096.63
2022-09-21T17:56:11.949Z,97094.94
2022-09-21T17:58:42.799Z,97100.88
2022-09-21T18:01:22.582Z,97100.78
2022-09-21T18:03:53.291Z,96747.75
2022-09-21T18:06:22.101Z,97117.34
2022-09-21T18:08:52.849Z,97112.25
2022-09-21T18:11:36.323Z,97118.31
2022-09-21T18:14:05.739Z,97119.53
2022-09-21T18:16:35.896Z,97120.38
2022-09-21T18:19:14.194Z,97127.91
2022-09-21T18:21:44.146Z,97120.25
2022-09-21T18:24:18.391Z,97125.91
2022-09-21T18:26:46.573Z,97129.13
2022-09-21T18:29:38.373Z,97131.28
2022-09-21T18:32:08.446Z,97133.66
2022-09-21T18:34:47.430Z,97133.97
2022-09-21T18:37:17.002Z,97142.03
2022-09-21T18:39:53.534Z,97134.09
2022-09-21T18:42:27.344Z,97140.22
2022-09-21T18:44:57.575Z,97145.28
2022-09-21T18:47:29.720Z,97144.22
2022-09-21T18:50:01.164Z,97143.69
2022-09-21T18:52:33.110Z,97137.91
2022-09-21T18:55:00.889Z,97145.09
2022-09-21T18:57:32.309Z,97144.28
2022-09-21T19:00:01.658Z,97143.50
2022-09-21T19:02:29.601Z,97145.09
2022-09-21T19:04:59.197Z,97150.94
2022-09-21T19:07:28.921Z,97149.88
2022-09-21T19:09:58.990Z,97146.13
2022-09-21T19:12:31.331Z,97155.47
2022-09-21T19:15:01.996Z,97153.63
2022-09-21T19:17:36.319Z,97144.03
2022-09-21T19:20:07.668Z,97150.41
2022-09-21T19:22:40.971Z,97147.50
2022-09-21T19:25:09.500Z,97147.78
2022-09-21T19:27:38.353Z,97152.81
2022-09-21T19:30:08.530Z,97154.16
2022-09-21T19:32:37.350Z,97158.13
2022-09-21T19:35:16.525Z,97154.44
2022-09-21T19:37:48.245Z,97158.16
2022-09-21T19:40:16.820Z,97156.00
2022-09-21T19:42:52.322Z,97155.75
2022-09-21T19:45:21.943Z,97159.22
2022-09-21T19:47:53.392Z,97157.06
2022-09-21T19:50:25.968Z,97158.94
2022-09-21T19:53:16.171Z,97156.75
2022-09-21T19:56:09.313Z,97154.91
2022-09-21T19:59:03.096Z,97158.63
2022-09-21T20:01:31.473Z,97156.53
2022-09-21T20:03:59.992Z,97157.03
2022-09-21T20:06:29.006Z,97154.13
2022-09-21T20:09:03.512Z,97150.03
2022-09-21T20:11:35.870Z,97154.56
2022-09-21T20:14:16.553Z,97151.19
2022-09-21T20:16:46.950Z,97159.03
2022-09-21T20:19:18.261Z,97155.31
2022-09-21T20:21:48.415Z,97154.31
2022-09-21T20:24:20.479Z,97158.72
2022-09-21T20:26:49.251Z,97149.50
2022-09-21T20:29:17.114Z,97157.50
2022-09-21T20:31:45.307Z,97148.75
2022-09-21T20:34:13.114Z,97152.69
2022-09-21T20:36:40.992Z,97154.31
2022-09-21T20:39:09.484Z,97152.97
2022-09-21T20:41:39.664Z,97158.34
2022-09-21T20:44:07.670Z,97163.25
2022-09-21T20:46:35.266Z,97163.28
2022-09-21T20:49:08.291Z,97168.81
2022-09-21T20:51:39.288Z,97168.63
2022-09-21T20:54:07.664Z,97196.00
2022-09-21T20:56:40.642Z,97167.50
2022-09-21T20:59:09.900Z,97171.81
2022-09-21T21:01:37.735Z,97170.44
2022-09-21T21:04:08.212Z,97167.94
2022-09-21T21:06:37.780Z,97170.03
2022-09-21T21:09:08.520Z,97171.63
2022-09-21T21:11:37.594Z,97177.41
2022-09-21T21:14:05.516Z,97166.13
2022-09-21T21:16:46.608Z,97164.41
2022-09-21T21:19:14.536Z,97171.06
2022-09-21T21:21:43.267Z,97171.19
2022-09-21T21:24:30.590Z,97171.66
2022-09-21T21:27:02.175Z,97172.75
2022-09-21T21:29:33.608Z,97172.59
2022-09-21T21:32:06.302Z,97172.59
2022-09-21T21:34:34.259Z,97175.09
2022-09-21T21:37:01.805Z,97177.97
2022-09-21T21:39:32.513Z,97175.38
2022-09-21T21:42:00.214Z,97169.56
2022-09-21T21:44:29.071Z,97169.25
2022-09-21T21:47:15.464Z,97163.59
2022-09-21T21:49:50.811Z,97168.13
2022-09-21T21:52:18.398Z,97168.09
2022-09-21T21:54:46.008Z,97166.97
2022-09-21T21:57:14.917Z,97168.22
2022-09-21T21:59:43.228Z,97167.09
2022-09-21T22:02:11.248Z,97166.84
2022-09-21T22:04:42.198Z,97162.59
2022-09-21T22:07:12.871Z,97168.00
2022-09-21T22:09:41.844Z,97169.50
2022-09-21T22:12:11.241Z,97163.09
2022-09-21T22:14:39.199Z,97155.03
2022-09-21T22:17:06.969Z,97151.31
2022-09-21T22:19:34.880Z,97146.22
2022-09-21T22:22:02.634Z,97155.25
2022-09-21T22:24:31.818Z,97157.34
2022-09-21T22:26:59.858Z,97154.34
2022-09-21T22:29:32.662Z,97154.28
2022-09-21T22:32:01.710Z,97159.00
2022-09-21T22:34:30.536Z,97164.63
2022-09-21T22:37:00.621Z,97160.41
2022-09-21T22:39:29.245Z,97161.91
2022-09-21T22:41:58.576Z,97164.56
2022-09-21T22:44:26.152Z,97158.34
2022-09-21T22:46:56.870Z,97158.28
2022-09-21T22:49:24.801Z,97156.88
2022-09-21T22:51:52.381Z,97152.34
2022-09-21T22:54:19.921Z,97157.28
2022-09-21T22:56:47.564Z,97154.00
2022-09-21T22:59:16.546Z,97159.94
2022-09-21T23:01:49.458Z,97155.97
2022-09-21T23:04:20.291Z,97153.09
2022-09-21T23:06:49.619Z,97151.28
2022-09-21T23:09:19.657Z,97146.28
2022-09-21T23:11:48.328Z,97148.28
2022-09-21T23:14:17.708Z,97146.69
2022-09-21T23:16:45.638Z,97142.88
2022-09-21T23:19:16.471Z,97139.56
2022-09-21T23:21:44.836Z,97142.72
2022-09-21T23:24:12.941Z,97144.28
2022-09-21T23:26:43.093Z,97141.34
2022-09-21T23:29:11.872Z,97138.63
2022-09-21T23:31:50.878Z,97138.88
2022-09-21T23:34:18.558Z,97131.38
2022-09-21T23:36:47.348Z,97129.94
2022-09-21T23:39:15.384Z,97139.50
2022-09-21T23:41:43.895Z,97132.34
2022-09-21T23:44:11.598Z,97139.47
2022-09-21T23:46:39.597Z,97128.06
2022-09-21T23:49:08.672Z,97136.16
2022-09-21T23:51:36.575Z,97126.28
2022-09-21T23:54:04.873Z,97125.63
2022-09-21T23:56:33.009Z,97122.38
